Time;durP1;ratioP1;P1;durP2;ratioP2;P2;SDS_P1;SDS_P2;PMS_P1;PMS_P2;Temp;Humidity;BMP_temperature;BMP_pressure;BME280_temperature;BME280_humidity;BME280_pressure;Samples;Min_cycle;Max_cycle;Signal;HPM_P1;HPM_P2
2021/07/13 04:01:28;;;;;;;9.70;8.90;;;19.30;99.90;;;;;;5486002;23;20837;-65
2021/07/13 04:03:55;;;;;;;9.63;8.93;;;19.30;99.90;;;;;;4978406;28;20462;-66
2021/07/13 04:06:22;;;;;;;8.70;8.10;;;19.40;99.90;;;;;;4978092;28;20455;-65
2021/07/13 04:08:49;;;;;;;9.37;8.67;;;19.40;99.90;;;;;;4978407;28;20454;-65
2021/07/13 04:11:16;;;;;;;8.50;7.80;;;19.40;99.90;;;;;;4978340;28;20478;-65
2021/07/13 04:13:43;;;;;;;8.13;7.43;;;19.50;99.90;;;;;;4978311;28;20458;-65
2021/07/13 04:16:09;;;;;;;8.60;7.80;;;19.40;99.90;;;;;;4978267;28;20454;-66
2021/07/13 04:18:38;;;;;;;14.80;7.97;;;19.50;99.90;;;;;;4978164;28;20461;-66
2021/07/13 04:21:05;;;;;;;6.87;6.27;;;19.50;99.90;;;;;;4978162;28;20478;-67
2021/07/13 04:23:32;;;;;;;6.77;5.60;;;19.50;99.90;;;;;;4977962;28;20465;-67
2021/07/13 04:25:58;;;;;;;5.60;4.87;;;19.50;99.90;;;;;;4977875;28;20458;-66
2021/07/13 04:28:26;;;;;;;7.73;5.67;;;19.40;99.90;;;;;;4978610;28;20481;-66
2021/07/13 04:30:53;;;;;;;4.70;4.33;;;19.40;99.90;;;;;;4977359;28;20478;-66
2021/07/13 04:33:20;;;;;;;4.10;3.80;;;19.40;99.90;;;;;;4977794;28;20505;-66
2021/07/13 04:35:48;;;;;;;4.00;3.70;;;19.40;99.90;;;;;;4977915;28;20462;-67
2021/07/13 04:38:15;;;;;;;4.10;3.63;;;19.50;99.90;;;;;;4977658;28;20458;-67
2021/07/13 04:40:42;;;;;;;7.50;3.80;;;19.50;99.90;;;;;;4976318;28;20478;-66
2021/07/13 04:43:08;;;;;;;3.80;3.50;;;19.60;99.90;;;;;;4977817;28;20467;-66
2021/07/13 04:45:35;;;;;;;4.27;3.40;;;19.70;99.90;;;;;;4978069;28;20454;-66
2021/07/13 04:48:02;;;;;;;3.10;2.80;;;19.70;99.90;;;;;;4977724;28;20455;-66
2021/07/13 04:50:28;;;;;;;4.53;3.37;;;19.80;99.90;;;;;;4977420;28;20450;-65
2021/07/13 04:52:57;;;;;;;4.87;4.20;;;19.80;99.90;;;;;;4978215;28;20482;-65
2021/07/13 04:55:24;;;;;;;4.90;4.50;;;19.70;99.90;;;;;;4976681;28;20542;-66
2021/07/13 04:57:50;;;;;;;4.40;4.10;;;19.70;99.90;;;;;;4977008;28;20863;-67
2021/07/13 05:00:17;;;;;;;4.77;4.37;;;19.80;99.90;;;;;;4977098;28;20466;-66
2021/07/13 05:02:44;;;;;;;5.47;4.97;;;19.90;99.90;;;;;;4976969;28;20435;-66
2021/07/13 05:05:14;;;;;;;5.20;4.70;;;19.90;99.90;;;;;;4977130;28;20600;-66
2021/07/13 05:07:41;;;;;;;5.90;5.20;;;19.80;99.90;;;;;;4976793;28;21058;-66
2021/07/13 05:10:11;;;;;;;5.30;4.90;;;19.80;99.90;;;;;;4977189;28;20462;-67
2021/07/13 05:12:38;;;;;;;5.60;5.10;;;19.90;99.90;;;;;;4977553;28;20839;-66
2021/07/13 05:15:07;;;;;;;5.07;4.70;;;19.90;99.90;;;;;;4976692;28;20972;-66
2021/07/13 05:17:35;;;;;;;6.03;5.43;;;20.10;99.90;;;;;;4977057;28;20462;-66
2021/07/13 05:20:02;;;;;;;5.33;4.37;;;20.10;99.90;;;;;;4976912;28;20493;-66
2021/07/13 05:22:29;;;;;;;5.00;4.60;;;20.10;99.90;;;;;;4976380;28;20990;-66
2021/07/13 05:24:56;;;;;;;7.33;4.93;;;20.20;99.90;;;;;;4976762;28;20458;-66
2021/07/13 05:27:24;;;;;;;5.80;4.47;;;20.20;99.90;;;;;;4976833;28;20455;-65
2021/07/13 05:29:52;;;;;;;5.03;4.53;;;20.30;99.90;;;;;;4976896;28;20458;-66
2021/07/13 05:32:19;;;;;;;7.90;5.40;;;20.30;99.90;;;;;;4976813;28;20887;-66
2021/07/13 05:34:46;;;;;;;4.77;4.47;;;20.40;99.90;;;;;;4976459;28;20455;-66
2021/07/13 05:37:13;;;;;;;7.43;4.87;;;20.40;99.90;;;;;;4976640;28;20494;-66
2021/07/13 05:39:40;;;;;;;5.87;5.37;;;20.50;99.90;;;;;;4976404;28;20938;-66
2021/07/13 05:42:08;;;;;;;7.37;4.77;;;20.50;99.90;;;;;;4976663;28;20474;-66
2021/07/13 05:44:37;;;;;;;4.80;4.40;;;20.60;99.90;;;;;;4976367;28;20457;-66
2021/07/13 05:47:04;;;;;;;5.20;4.80;;;20.60;99.90;;;;;;4976691;28;20454;-66
2021/07/13 05:49:31;;;;;;;4.87;4.00;;;20.70;99.90;;;;;;4976289;28;20461;-66
2021/07/13 05:51:58;;;;;;;4.93;4.53;;;20.60;99.90;;;;;;4975029;28;20989;-66
2021/07/13 05:54:24;;;;;;;5.87;5.23;;;20.50;99.90;;;;;;4976284;28;20466;-66
2021/07/13 05:56:51;;;;;;;4.97;4.57;;;20.40;99.90;;;;;;4976301;28;20466;-66
2021/07/13 05:59:18;;;;;;;5.37;4.20;;;20.20;99.90;;;;;;4976252;28;20455;-66
2021/07/13 06:01:46;;;;;;;4.93;4.43;;;20.30;99.90;;;;;;4975790;28;20489;-66
2021/07/13 06:04:13;;;;;;;5.10;4.60;;;20.40;99.90;;;;;;4976346;28;20458;-66
2021/07/13 06:06:40;;;;;;;5.57;5.17;;;20.40;99.90;;;;;;4976383;28;20458;-66
2021/07/13 06:09:06;;;;;;;6.77;4.80;;;20.50;99.90;;;;;;4976376;28;20822;-66
2021/07/13 06:11:33;;;;;;;4.73;4.33;;;20.50;99.90;;;;;;4977742;28;20479;-66
2021/07/13 06:14:00;;;;;;;5.20;4.70;;;20.40;99.90;;;;;;4977426;28;20502;-66
2021/07/13 06:16:26;;;;;;;6.10;5.43;;;20.30;99.90;;;;;;4976515;28;20465;-66
2021/07/13 06:18:54;;;;;;;5.43;5.03;;;20.40;99.90;;;;;;4975996;28;20458;-67
2021/07/13 06:21:21;;;;;;;5.10;4.70;;;20.30;99.90;;;;;;4976039;28;20478;-65
2021/07/13 06:23:48;;;;;;;6.73;4.37;;;20.40;99.90;;;;;;4975906;28;20451;-64
2021/07/13 06:26:15;;;;;;;6.47;5.10;;;20.40;99.90;;;;;;4975734;28;20463;-64
2021/07/13 06:28:41;;;;;;;5.10;4.70;;;20.30;99.90;;;;;;4975918;28;20459;-65
2021/07/13 06:31:08;;;;;;;5.43;5.00;;;20.30;99.90;;;;;;4975596;28;20486;-65
2021/07/13 06:33:36;;;;;;;5.67;5.17;;;20.30;99.90;;;;;;4975569;28;20462;-66
2021/07/13 06:36:05;;;;;;;5.17;4.67;;;20.30;99.90;;;;;;4975747;28;20478;-65
2021/07/13 06:38:31;;;;;;;6.33;5.20;;;20.30;99.90;;;;;;4975880;28;20465;-65
2021/07/13 06:40:58;;;;;;;5.93;5.33;;;20.30;99.90;;;;;;4975531;28;20479;-65
2021/07/13 06:43:25;;;;;;;10.00;5.17;;;20.40;99.90;;;;;;4975090;28;20818;-66
2021/07/13 06:45:51;;;;;;;7.73;5.10;;;20.50;99.90;;;;;;4975489;28;20458;-65
2021/07/13 06:48:18;;;;;;;5.20;4.90;;;20.60;99.90;;;;;;4975695;28;20454;-65
2021/07/13 06:50:45;;;;;;;5.47;5.17;;;20.70;99.90;;;;;;4975374;28;20483;-66
2021/07/13 06:53:13;;;;;;;8.47;5.50;;;20.70;99.90;;;;;;4975694;28;20489;-67
2021/07/13 06:55:40;;;;;;;5.40;4.90;;;20.80;99.90;;;;;;4975401;28;20968;-66
2021/07/13 06:58:07;;;;;;;8.50;4.87;;;20.70;99.90;;;;;;4975632;28;20462;-66
2021/07/13 07:00:33;;;;;;;5.47;5.13;;;20.80;99.90;;;;;;4975416;28;20889;-66
2021/07/13 07:03:00;;;;;;;4.97;4.47;;;20.70;99.90;;;;;;4976743;28;20446;-66
2021/07/13 07:05:27;;;;;;;7.33;4.23;;;20.60;99.90;;;;;;4979774;28;20451;-66
2021/07/13 07:07:54;;;;;;;5.00;4.60;;;20.60;99.90;;;;;;4979107;28;20848;-66
2021/07/13 07:10:23;;;;;;;5.13;4.63;;;20.60;99.90;;;;;;4979275;28;20820;-66
2021/07/13 07:12:51;;;;;;;4.50;4.00;;;20.50;99.90;;;;;;4979150;28;20474;-66
2021/07/13 07:15:18;;;;;;;4.13;3.83;;;20.50;99.90;;;;;;4979158;28;20461;-66
2021/07/13 07:17:46;;;;;;;4.23;3.77;;;20.50;99.90;;;;;;4979931;28;20450;-67
2021/07/13 07:20:14;;;;;;;5.70;3.90;;;20.50;99.90;;;;;;4979141;28;20462;-67
2021/07/13 07:22:41;;;;;;;5.20;4.00;;;20.50;99.90;;;;;;4979261;28;20454;-67
2021/07/13 07:25:09;;;;;;;3.90;3.50;;;20.40;99.90;;;;;;4979255;28;20454;-66
2021/07/13 07:27:38;;;;;;;3.50;3.20;;;20.40;99.90;;;;;;4978771;28;20942;-66
2021/07/13 07:30:07;;;;;;;5.53;3.40;;;20.40;99.90;;;;;;4979197;28;20465;-67
2021/07/13 07:32:34;;;;;;;4.67;4.20;;;20.50;99.90;;;;;;4978715;28;20482;-65
2021/07/13 07:35:01;;;;;;;3.43;3.10;;;20.50;99.90;;;;;;4978658;28;20842;-66
2021/07/13 07:37:28;;;;;;;6.30;3.37;;;20.50;99.90;;;;;;4978562;28;20458;-65
2021/07/13 07:39:54;;;;;;;5.30;3.57;;;20.50;99.90;;;;;;4978589;28;20826;-66
2021/07/13 07:42:21;;;;;;;4.07;3.67;;;20.50;99.90;;;;;;4979005;28;20477;-66
2021/07/13 07:44:49;;;;;;;4.27;3.80;;;20.50;99.90;;;;;;4978934;28;20458;-66
2021/07/13 07:47:16;;;;;;;4.33;3.27;;;20.40;99.90;;;;;;4978689;28;20458;-66
2021/07/13 07:49:43;;;;;;;3.70;3.40;;;20.40;99.90;;;;;;4978550;28;20458;-66
2021/07/13 07:52:10;;;;;;;4.37;3.80;;;20.40;99.90;;;;;;4978092;28;20485;-67
2021/07/13 07:54:37;;;;;;;4.17;3.67;;;20.30;99.90;;;;;;4978494;28;20461;-66
2021/07/13 07:57:04;;;;;;;6.53;3.70;;;20.20;99.90;;;;;;4978550;28;20461;-67
2021/07/13 07:59:31;;;;;;;3.87;3.67;;;20.20;99.90;;;;;;4978781;28;20462;-66
2021/07/13 08:01:59;;;;;;;8.73;4.87;;;20.20;99.90;;;;;;4980688;28;20482;-66
2021/07/13 08:04:25;;;;;;;4.80;4.40;;;20.20;99.90;;;;;;4979331;28;20455;-66
2021/07/13 08:06:52;;;;;;;7.77;4.80;;;20.20;99.90;;;;;;4978799;28;20946;-66
2021/07/13 08:09:19;;;;;;;6.03;5.40;;;20.20;99.90;;;;;;4980809;28;20513;-66
2021/07/13 08:11:46;;;;;;;5.90;5.50;;;20.10;99.90;;;;;;4978448;28;20475;-66
2021/07/13 08:14:12;;;;;;;7.77;6.80;;;20.10;99.90;;;;;;4978128;28;20489;-66
2021/07/13 08:16:40;;;;;;;7.67;7.07;;;20.20;99.90;;;;;;4977938;28;20968;-66
2021/07/13 08:19:09;;;;;;;8.43;7.60;;;20.20;99.90;;;;;;4977984;28;20549;-66
2021/07/13 08:21:36;;;;;;;9.23;8.50;;;20.20;99.90;;;;;;4979484;28;20479;-66
2021/07/13 08:24:03;;;;;;;7.83;7.20;;;20.30;99.90;;;;;;4978062;28;20961;-66
2021/07/13 08:26:30;;;;;;;8.13;7.33;;;20.40;99.90;;;;;;4978002;28;20459;-66
2021/07/13 08:28:57;;;;;;;8.30;7.43;;;20.50;99.90;;;;;;4977973;28;20450;-66
2021/07/13 08:31:23;;;;;;;8.40;7.67;;;20.60;99.90;;;;;;4978018;28;20479;-65
2021/07/13 08:33:50;;;;;;;7.10;6.50;;;20.60;99.90;;;;;;4978230;28;20482;-66
2021/07/13 08:36:18;;;;;;;8.80;8.00;;;20.70;99.90;;;;;;4977951;28;20495;-66
2021/07/13 08:38:45;;;;;;;8.30;7.60;;;20.70;99.90;;;;;;4977842;28;20938;-66
2021/07/13 08:41:12;;;;;;;8.63;7.97;;;20.70;99.90;;;;;;4977992;28;20475;-66
2021/07/13 08:43:39;;;;;;;8.50;7.80;;;20.70;99.90;;;;;;4977988;28;20458;-65
2021/07/13 08:46:06;;;;;;;11.47;8.87;;;20.70;99.90;;;;;;4978025;28;20466;-64
2021/07/13 08:48:33;;;;;;;9.03;8.37;;;20.70;99.90;;;;;;4977458;28;20454;-65
2021/07/13 08:51:01;;;;;;;13.77;9.67;;;20.60;99.90;;;;;;4977660;28;20506;-65
2021/07/13 08:53:30;;;;;;;5.80;5.40;;;20.50;99.90;;;;;;4977715;28;20474;-64
2021/07/13 08:55:57;;;;;;;5.20;4.73;;;20.40;99.90;;;;;;4977760;28;20461;-64
2021/07/13 08:58:25;;;;;;;3.87;3.53;;;20.30;99.90;;;;;;4977605;28;20458;-64
2021/07/13 09:00:53;;;;;;;2.43;2.33;;;20.30;99.90;;;;;;4977018;28;20825;-64
2021/07/13 09:03:22;;;;;;;2.47;2.00;;;20.20;99.90;;;;;;4977367;28;20542;-65
2021/07/13 09:05:50;;;;;;;1.60;1.50;;;20.10;99.90;;;;;;4977047;28;21005;-65
2021/07/13 09:08:20;;;;;;;1.87;1.60;;;20.00;99.90;;;;;;4977354;28;20865;-65
2021/07/13 09:11:07;;;;;;;1.63;1.43;;;19.70;99.90;;;;;;4977255;28;20474;-65
2021/07/13 09:13:36;;;;;;;1.97;1.40;;;19.60;99.90;;;;;;4977301;28;20459;-66
2021/07/13 09:16:05;;;;;;;1.37;1.37;;;19.60;99.90;;;;;;4977476;28;20458;-64
2021/07/13 09:18:33;;;;;;;1.60;0.97;;;19.50;99.90;;;;;;4977039;28;20443;-65
2021/07/13 09:21:15;;;;;;;0.97;0.87;;;19.40;99.90;;;;;;4977111;28;20471;-66
2021/07/13 09:24:16;;;;;;;0.40;0.40;;;19.30;99.90;;;;;;4977324;28;20438;-66
2021/07/13 09:26:50;;;;;;;0.70;0.50;;;19.20;99.90;;;;;;4916649;29;20440;-66
2021/07/13 09:29:34;;;;;;;0.40;0.40;;;19.00;99.90;;;;;;4917216;29;20468;-66
2021/07/13 09:32:19;;;;;;;0.50;0.50;;;18.70;99.90;;;;;;4953809;28;20521;-66
2021/07/13 09:34:48;;;;;;;4.83;0.63;;;18.60;99.90;;;;;;4977499;28;20459;-66
2021/07/13 09:37:22;;;;;;;0.50;0.50;;;18.50;99.90;;;;;;4976776;28;20482;-66
2021/07/13 09:39:56;;;;;;;0.50;0.40;;;18.30;99.90;;;;;;4976671;28;20447;-66
2021/07/13 09:42:25;;;;;;;1.40;0.40;;;18.20;99.90;;;;;;4976914;28;20564;-66
2021/07/13 09:44:52;;;;;;;0.40;0.40;;;18.10;99.90;;;;;;4976422;28;20447;-66
2021/07/13 09:47:29;;;;;;;0.70;0.33;;;17.90;99.90;;;;;;4976648;28;20459;-66
2021/07/13 09:49:56;;;;;;;0.60;0.60;;;17.80;99.90;;;;;;4979991;28;20438;-66
2021/07/13 09:52:25;;;;;;;2.07;1.90;;;17.70;99.90;;;;;;4977502;28;20486;-67
2021/07/13 09:54:52;;;;;;;0.40;0.40;;;17.50;99.90;;;;;;4976612;28;20455;-66
2021/07/13 09:57:22;;;;;;;0.40;0.40;;;17.50;99.90;;;;;;4976269;28;20463;-66
2021/07/13 09:59:52;;;;;;;1.27;0.73;;;17.40;99.90;;;;;;4976151;28;21008;-66
2021/07/13 10:02:23;;;;;;;0.60;0.60;;;17.40;99.90;;;;;;4976036;28;20487;-66
2021/07/13 10:04:50;;;;;;;0.40;0.40;;;17.40;99.90;;;;;;4976210;28;20443;-66
2021/07/13 10:07:19;;;;;;;0.87;0.60;;;17.40;99.90;;;;;;4976111;28;20905;-66
2021/07/13 10:09:48;;;;;;;0.87;0.40;;;17.40;99.90;;;;;;4975836;28;20937;-65
2021/07/13 10:12:16;;;;;;;1.43;0.43;;;17.30;99.90;;;;;;4975879;28;20990;-65
2021/07/13 10:14:45;;;;;;;1.37;0.50;;;17.30;99.90;;;;;;4976099;28;20473;-65
2021/07/13 10:17:14;;;;;;;6.20;0.60;;;17.20;99.90;;;;;;4975956;28;20455;-65
2021/07/13 10:19:47;;;;;;;0.70;0.70;;;17.30;99.90;;;;;;4978195;28;20839;-65
2021/07/13 10:22:15;;;;;;;1.17;0.60;;;17.40;99.90;;;;;;4975647;28;20479;-65
2021/07/13 10:24:44;;;;;;;0.63;0.63;;;17.50;99.90;;;;;;4976166;28;20447;-65
2021/07/13 10:27:15;;;;;;;0.80;0.80;;;17.60;99.90;;;;;;4975957;28;20493;-65
2021/07/13 10:29:44;;;;;;;0.50;0.50;;;17.60;99.90;;;;;;4976787;28;20486;-66
2021/07/13 10:32:40;;;;;;;2.87;0.90;;;17.70;99.90;;;;;;4979422;28;20496;-65
2021/07/13 10:35:22;;;;;;;0.70;0.70;;;17.70;99.90;;;;;;4945717;28;20455;-65
2021/07/13 10:37:49;;;;;;;2.03;0.93;;;17.80;99.90;;;;;;4978917;28;20852;-65
2021/07/13 10:40:34;;;;;;;4.13;1.87;;;18.00;99.90;;;;;;4978222;28;20458;-65
2021/07/13 10:43:02;;;;;;;0.63;0.63;;;18.10;99.90;;;;;;4979406;28;20442;-66
2021/07/13 10:45:32;;;;;;;3.10;0.53;;;18.20;99.90;;;;;;4979362;28;20494;-66
2021/07/13 10:48:02;;;;;;;0.53;0.53;;;18.20;99.90;;;;;;4979506;28;20454;-66
2021/07/13 10:50:47;;;;;;;1.50;0.50;;;18.30;99.90;;;;;;4979964;28;20445;-66
2021/07/13 10:53:23;;;;;;;0.73;0.50;;;18.20;99.90;;;;;;4979013;28;20462;-66
2021/07/13 10:56:08;;;;;;;0.90;0.50;;;18.00;99.90;;;;;;4979053;28;20466;-66
2021/07/13 10:58:46;;;;;;;0.50;0.50;;;17.80;99.90;;;;;;4979526;28;20451;-66
2021/07/13 11:01:22;;;;;;;1.63;0.93;;;17.80;99.90;;;;;;4979821;28;20858;-66
2021/07/13 11:04:07;;;;;;;0.60;0.40;;;17.60;99.90;;;;;;4979113;28;20807;-65
2021/07/13 11:06:42;;;;;;;1.30;0.50;;;17.40;99.90;;;;;;4979301;28;20981;-65
2021/07/13 11:09:24;;;;;;;0.53;0.50;;;17.30;99.90;;;;;;4976958;28;20454;-65
2021/07/13 11:11:52;;;;;;;0.90;0.60;;;17.30;99.90;;;;;;4975791;28;20475;-65
2021/07/13 11:14:19;;;;;;;0.60;0.60;;;17.40;99.90;;;;;;4976538;28;20478;-65
2021/07/13 11:16:51;;;;;;;1.73;0.63;;;17.50;99.90;;;;;;4975576;28;20821;-66
2021/07/13 11:19:19;;;;;;;1.00;0.80;;;17.70;99.90;;;;;;4975331;28;20445;-65
2021/07/13 11:21:48;;;;;;;1.80;0.70;;;18.00;99.90;;;;;;4975190;28;20838;-65
2021/07/13 11:24:17;;;;;;;3.43;1.23;;;18.50;99.90;;;;;;4975175;28;20453;-65
2021/07/13 11:26:47;;;;;;;1.17;0.50;;;18.70;99.90;;;;;;4977329;28;20451;-66
2021/07/13 11:29:19;;;;;;;0.63;0.60;;;18.90;99.90;;;;;;4981221;28;20465;-65
2021/07/13 11:31:52;;;;;;;1.83;0.67;;;18.90;99.90;;;;;;4981209;28;20548;-65
2021/07/13 11:34:22;;;;;;;1.43;0.90;;;18.90;99.90;;;;;;4981434;28;20985;-65
2021/07/13 11:36:50;;;;;;;1.13;0.50;;;18.70;99.90;;;;;;4980934;28;20478;-65
2021/07/13 11:39:23;;;;;;;1.67;0.80;;;18.60;99.90;;;;;;4980788;28;20462;-65
2021/07/13 11:41:52;;;;;;;1.90;0.50;;;18.50;99.90;;;;;;4981165;28;20481;-65
2021/07/13 11:44:18;;;;;;;3.40;0.60;;;18.50;99.90;;;;;;4981287;28;20484;-64
2021/07/13 11:46:46;;;;;;;0.60;0.60;;;18.40;99.90;;;;;;4981002;28;20454;-65
2021/07/13 11:49:17;;;;;;;1.40;0.73;;;18.40;99.90;;;;;;4982019;28;20450;-64
2021/07/13 11:51:54;;;;;;;2.30;0.90;;;18.30;99.90;;;;;;4984678;28;20481;-66
2021/07/13 11:54:22;;;;;;;1.13;0.97;;;18.40;99.90;;;;;;4982748;28;20494;-66
2021/07/13 11:56:51;;;;;;;0.60;0.60;;;18.30;99.90;;;;;;4979616;28;20482;-64
2021/07/13 11:59:20;;;;;;;1.33;0.90;;;18.40;99.90;;;;;;4979737;28;20566;-64
2021/07/13 12:01:52;;;;;;;0.70;0.70;;;18.50;99.90;;;;;;4978044;28;20493;-65
2021/07/13 12:04:19;;;;;;;1.43;0.77;;;18.60;99.90;;;;;;4978576;28;20527;-65
2021/07/13 12:06:51;;;;;;;1.40;0.80;;;18.70;99.90;;;;;;4979703;28;20454;-65
2021/07/13 12:09:23;;;;;;;0.93;0.60;;;18.80;99.90;;;;;;4978458;28;20442;-65
2021/07/13 12:11:52;;;;;;;1.17;0.70;;;18.90;99.90;;;;;;4978307;28;20483;-66
2021/07/13 12:14:21;;;;;;;1.70;0.60;;;19.00;99.90;;;;;;4978455;28;20518;-66
2021/07/13 12:16:49;;;;;;;0.70;0.70;;;19.10;99.90;;;;;;4978605;28;20454;-66
2021/07/13 12:19:20;;;;;;;0.87;0.67;;;19.20;99.90;;;;;;4978348;28;20461;-66
2021/07/13 12:21:51;;;;;;;1.63;0.60;;;19.40;99.90;;;;;;4978395;28;20478;-65
2021/07/13 12:24:21;;;;;;;0.77;0.50;;;19.60;99.90;;;;;;4978757;28;20439;-65
2021/07/13 12:26:49;;;;;;;0.70;0.70;;;19.80;99.90;;;;;;4978170;28;20934;-65
2021/07/13 12:29:18;;;;;;;0.70;0.70;;;19.90;99.90;;;;;;4978391;28;20462;-66
2021/07/13 12:31:53;;;;;;;1.03;0.93;;;19.80;99.90;;;;;;4978478;28;20478;-66
2021/07/13 12:34:22;;;;;;;3.53;1.00;;;19.80;99.90;;;;;;4978001;28;20471;-65
2021/07/13 12:37:04;;;;;;;1.10;1.10;;;19.80;99.90;;;;;;4978276;28;20866;-65
2021/07/13 12:39:30;;;;;;;0.80;0.80;;;19.90;99.90;;;;;;4979085;28;20445;-64
2021/07/13 12:41:59;;;;;;;7.50;1.00;;;19.90;99.90;;;;;;4978545;28;20474;-64
2021/07/13 12:44:34;;;;;;;2.73;0.80;;;19.80;99.90;;;;;;4977932;28;20455;-64
2021/07/13 12:47:21;;;;;;;2.43;0.80;;;19.80;99.90;;;;;;4984280;28;20449;-65
2021/07/13 12:50:12;;;;;;;0.80;0.80;;;19.90;99.90;;;;;;4977653;28;20926;-64
2021/07/13 12:52:43;;;;;;;3.67;1.10;;;19.80;99.90;;;;;;4977631;28;20450;-65
2021/07/13 12:55:12;;;;;;;1.17;0.60;;;19.80;99.90;;;;;;4977440;28;20466;-66
2021/07/13 12:57:40;;;;;;;0.73;0.70;;;19.80;99.90;;;;;;4977453;28;20462;-64
2021/07/13 13:00:27;;;;;;;2.10;0.90;;;19.90;99.90;;;;;;4977416;28;20497;-65
2021/07/13 13:03:03;;;;;;;0.53;0.53;;;20.00;99.90;;;;;;4977644;28;20458;-65
2021/07/13 13:05:32;;;;;;;0.70;0.67;;;19.90;99.90;;;;;;4977243;28;20442;-65
2021/07/13 13:08:01;;;;;;;1.13;0.70;;;20.00;99.90;;;;;;4977589;28;20462;-65
2021/07/13 13:10:28;;;;;;;0.73;0.70;;;20.10;99.90;;;;;;4977471;28;20958;-65
2021/07/13 13:12:55;;;;;;;0.50;0.50;;;20.10;99.90;;;;;;4977469;28;20457;-65
2021/07/13 13:15:24;;;;;;;1.10;0.70;;;20.20;99.90;;;;;;4976924;28;20475;-65
2021/07/13 13:17:51;;;;;;;1.03;0.50;;;20.40;99.90;;;;;;4978198;28;20487;-65
2021/07/13 13:20:18;;;;;;;1.83;0.67;;;20.40;99.90;;;;;;4977930;28;20455;-64
2021/07/13 13:22:48;;;;;;;0.60;0.60;;;20.30;99.90;;;;;;4977340;28;20454;-65
2021/07/13 13:25:17;;;;;;;1.23;0.73;;;20.40;99.90;;;;;;4977455;28;20858;-65
2021/07/13 13:27:44;;;;;;;4.07;0.70;;;20.50;99.90;;;;;;4977527;28;20466;-65
2021/07/13 13:30:13;;;;;;;0.90;0.90;;;20.60;99.90;;;;;;4977141;28;20454;-65
2021/07/13 13:32:40;;;;;;;0.80;0.80;;;20.50;99.90;;;;;;4977097;28;20454;-65
2021/07/13 13:35:11;;;;;;;0.73;0.73;;;20.70;99.90;;;;;;4976851;28;20479;-65
2021/07/13 13:37:48;;;;;;;0.83;0.83;;;20.50;99.90;;;;;;4976509;28;20906;-65
2021/07/13 13:40:17;;;;;;;2.67;0.73;;;20.60;99.90;;;;;;4976777;28;20439;-66
2021/07/13 13:42:44;;;;;;;1.93;0.70;;;20.60;99.90;;;;;;4976929;28;20439;-65
2021/07/13 13:45:11;;;;;;;0.73;0.73;;;20.60;99.90;;;;;;4977129;28;20457;-65
2021/07/13 13:47:38;;;;;;;1.07;0.43;;;20.60;99.90;;;;;;4976647;28;20451;-65
2021/07/13 13:50:06;;;;;;;2.00;1.00;;;20.60;99.90;;;;;;4976471;28;20942;-65
2021/07/13 13:52:33;;;;;;;2.07;1.13;;;20.80;99.90;;;;;;4978198;28;20485;-66
2021/07/13 13:55:00;;;;;;;2.40;0.60;;;20.80;99.90;;;;;;4984907;28;20486;-66
2021/07/13 13:57:28;;;;;;;1.13;0.60;;;20.80;99.90;;;;;;4976652;28;20467;-66
2021/07/13 13:59:54;;;;;;;3.60;0.90;;;20.90;99.90;;;;;;4976333;28;20941;-66
2021/07/13 14:02:21;;;;;;;1.57;0.90;;;20.90;99.90;;;;;;4976468;28;20490;-66
2021/07/13 14:04:48;;;;;;;0.73;0.73;;;20.90;99.90;;;;;;4976137;28;20950;-66
2021/07/13 14:07:15;;;;;;;1.20;0.70;;;21.00;99.90;;;;;;4976673;28;20463;-66
2021/07/13 14:09:41;;;;;;;0.80;0.80;;;20.90;99.90;;;;;;4976485;28;20458;-66
2021/07/13 14:12:10;;;;;;;0.80;0.80;;;21.10;99.90;;;;;;4976157;28;20465;-66
2021/07/13 14:14:39;;;;;;;0.83;0.83;;;21.10;99.90;;;;;;4976429;28;20521;-66
2021/07/13 14:17:06;;;;;;;1.73;1.00;;;21.10;99.90;;;;;;4976214;28;21009;-66
2021/07/13 14:19:33;;;;;;;0.73;0.60;;;21.10;99.90;;;;;;4976162;28;20462;-66
2021/07/13 14:22:00;;;;;;;0.90;0.90;;;21.40;99.90;;;;;;4975891;28;21097;-66
2021/07/13 14:24:27;;;;;;;1.13;0.83;;;21.50;99.90;;;;;;4975976;28;20458;-66
2021/07/13 14:26:53;;;;;;;0.80;0.80;;;21.70;99.90;;;;;;4975451;28;20963;-66
2021/07/13 14:29:20;;;;;;;0.80;0.80;;;21.60;99.90;;;;;;4976102;28;20466;-66
2021/07/13 14:31:49;;;;;;;1.93;0.80;;;21.80;99.90;;;;;;4976058;28;20475;-66
2021/07/13 14:34:15;;;;;;;1.70;0.90;;;21.80;99.90;;;;;;4975947;28;20479;-67
2021/07/13 14:36:42;;;;;;;1.90;1.00;;;21.90;99.90;;;;;;4975608;28;20462;-66
2021/07/13 14:39:09;;;;;;;0.90;0.90;;;21.70;99.90;;;;;;4975564;28;20463;-67
2021/07/13 14:41:36;;;;;;;2.00;0.93;;;21.70;99.90;;;;;;4975524;28;20478;-66
2021/07/13 14:44:03;;;;;;;0.80;0.80;;;21.50;99.90;;;;;;4976098;28;20458;-66
2021/07/13 14:46:30;;;;;;;1.33;0.80;;;21.70;99.90;;;;;;4976051;28;20465;-66
2021/07/13 14:48:58;;;;;;;1.27;0.87;;;21.80;99.90;;;;;;4975772;28;20462;-67
2021/07/13 14:51:24;;;;;;;0.70;0.70;;;21.70;99.90;;;;;;4975324;28;21001;-66
2021/07/13 14:53:51;;;;;;;5.00;0.90;;;21.80;99.90;;;;;;4975902;28;20489;-66
2021/07/13 14:56:18;;;;;;;0.70;0.70;;;21.70;99.90;;;;;;4975860;28;20454;-66
2021/07/13 14:58:45;;;;;;;0.90;0.77;;;21.70;99.90;;;;;;4975505;28;20468;-66
2021/07/13 15:01:11;;;;;;;2.23;0.73;;;21.30;99.90;;;;;;4975406;28;21024;-66
2021/07/13 15:03:38;;;;;;;2.10;0.80;;;21.40;99.90;;;;;;4975503;28;20972;-66
2021/07/13 15:06:06;;;;;;;1.00;0.90;;;21.30;99.90;;;;;;4976097;28;20455;-66
2021/07/13 15:08:33;;;;;;;1.53;1.03;;;21.10;99.90;;;;;;4976177;28;20493;-66
2021/07/13 15:11:02;;;;;;;0.80;0.80;;;21.00;99.90;;;;;;4975541;28;20471;-66
2021/07/13 15:13:28;;;;;;;1.00;0.83;;;20.80;99.90;;;;;;4976008;28;20454;-66
2021/07/13 15:15:55;;;;;;;0.90;0.90;;;20.70;99.90;;;;;;4975658;28;20485;-66
2021/07/13 15:18:22;;;;;;;1.20;1.10;;;20.80;99.90;;;;;;4975902;28;20462;-66
2021/07/13 15:20:49;;;;;;;1.27;1.00;;;20.70;99.90;;;;;;4976259;28;20470;-66
2021/07/13 15:23:18;;;;;;;3.03;0.80;;;20.60;99.90;;;;;;4975908;28;20455;-66
2021/07/13 15:25:45;;;;;;;1.23;0.70;;;20.40;99.90;;;;;;4979165;28;20462;-66
2021/07/13 15:28:12;;;;;;;1.30;1.20;;;20.30;99.90;;;;;;4979835;28;20548;-66
2021/07/13 15:30:39;;;;;;;0.70;0.70;;;20.30;99.90;;;;;;4979763;28;20470;-66
2021/07/13 15:33:08;;;;;;;1.00;0.90;;;20.20;99.90;;;;;;4979786;28;20461;-66
2021/07/13 15:35:35;;;;;;;1.33;1.23;;;20.10;99.90;;;;;;4979487;28;20506;-66
2021/07/13 15:38:02;;;;;;;1.13;0.97;;;20.20;99.90;;;;;;4979664;28;20458;-66
2021/07/13 15:40:30;;;;;;;1.27;1.10;;;20.10;99.90;;;;;;4979848;28;20489;-67
2021/07/13 15:42:56;;;;;;;1.57;1.13;;;20.10;99.90;;;;;;4986652;28;20454;-66
2021/07/13 15:45:24;;;;;;;1.10;1.03;;;19.90;99.90;;;;;;4985901;28;20474;-66
2021/07/13 15:47:50;;;;;;;1.00;1.00;;;20.00;99.90;;;;;;4985102;28;20454;-66
2021/07/13 15:50:17;;;;;;;2.10;1.30;;;20.00;99.90;;;;;;4979913;28;20545;-66
2021/07/13 15:52:44;;;;;;;1.30;1.20;;;20.00;99.90;;;;;;4979220;28;20987;-66
2021/07/13 15:55:12;;;;;;;1.17;1.00;;;20.10;99.90;;;;;;4978888;28;20970;-66
2021/07/13 15:57:40;;;;;;;0.87;0.87;;;20.20;99.90;;;;;;4979003;28;20501;-66
2021/07/13 16:00:08;;;;;;;1.00;1.00;;;20.20;99.90;;;;;;4978680;28;20465;-66
2021/07/13 16:02:35;;;;;;;0.90;0.90;;;20.40;99.90;;;;;;4978509;28;20489;-66
2021/07/13 16:05:02;;;;;;;4.27;1.33;;;20.50;99.90;;;;;;4979437;28;20451;-66
2021/07/13 16:07:29;;;;;;;1.53;1.20;;;20.60;99.90;;;;;;4978282;28;20458;-66
2021/07/13 16:09:56;;;;;;;1.00;1.00;;;20.80;99.90;;;;;;4978022;28;20451;-66
2021/07/13 16:12:22;;;;;;;3.33;1.37;;;20.80;99.90;;;;;;4978075;28;20479;-66
2021/07/13 16:14:52;;;;;;;1.67;1.10;;;20.90;99.90;;;;;;4978359;28;20509;-66
2021/07/13 16:17:18;;;;;;;1.00;1.00;;;20.90;99.90;;;;;;4978588;28;20454;-66
2021/07/13 16:19:45;;;;;;;1.40;1.20;;;20.90;99.90;;;;;;4978404;28;20461;-66
2021/07/13 16:22:12;;;;;;;6.23;1.20;;;20.90;99.90;;;;;;4978073;28;20482;-66
2021/07/13 16:24:39;;;;;;;0.90;0.90;;;20.70;99.90;;;;;;4978449;28;20509;-66
2021/07/13 16:27:06;;;;;;;0.80;0.80;;;20.80;99.90;;;;;;4978083;28;20489;-66
2021/07/13 16:29:33;;;;;;;2.00;1.00;;;20.90;99.90;;;;;;4977953;28;21058;-66
2021/07/13 16:32:01;;;;;;;4.80;1.17;;;21.00;99.90;;;;;;4978129;28;20475;-65
2021/07/13 16:34:28;;;;;;;1.07;1.00;;;21.00;99.90;;;;;;4977867;28;20969;-66
2021/07/13 16:36:54;;;;;;;0.90;0.80;;;21.20;99.90;;;;;;4978448;28;20459;-67
2021/07/13 16:39:21;;;;;;;1.10;1.10;;;21.30;99.90;;;;;;4978488;28;20461;-65
2021/07/13 16:41:48;;;;;;;1.47;1.47;;;21.40;99.90;;;;;;4977469;28;20550;-65
2021/07/13 16:44:15;;;;;;;2.70;1.30;;;21.40;99.90;;;;;;4979212;28;20455;-67
2021/07/13 16:46:41;;;;;;;1.00;1.00;;;21.40;99.90;;;;;;4977499;28;20450;-66
2021/07/13 16:49:09;;;;;;;0.90;0.90;;;21.40;99.90;;;;;;4977886;28;20458;-66
2021/07/13 16:51:36;;;;;;;1.00;1.00;;;21.40;99.90;;;;;;4977927;28;20490;-66
2021/07/13 16:54:03;;;;;;;1.43;1.00;;;21.50;99.90;;;;;;4978369;28;20462;-66